createdAt,value
2019-02-27T00:00:32.581Z,67.15
2019-02-27T00:01:26.380Z,67.14
2019-02-27T00:02:02.953Z,67.14
2019-02-27T00:02:39.538Z,67.01
2019-02-27T00:03:16.029Z,66.69
2019-02-27T00:03:52.528Z,66.27
2019-02-27T00:04:29.048Z,65.33
2019-02-27T00:05:08.533Z,65.33
2019-02-27T00:05:45.477Z,64.62
2019-02-27T00:06:25.230Z,64.13
2019-02-27T00:07:01.514Z,63.65
2019-02-27T00:07:37.771Z,63.19
2019-02-27T00:08:15.390Z,62.79
2019-02-27T00:08:54.754Z,62.21
2019-02-27T00:09:32.973Z,62.21
2019-02-27T00:10:10.804Z,60.75
2019-02-27T00:10:47.083Z,60.48
2019-02-27T00:11:23.865Z,60.13
2019-02-27T00:12:00.679Z,60.15
2019-02-27T00:12:36.978Z,60.15
2019-02-27T00:13:13.274Z,59.77
2019-02-27T00:13:49.559Z,59.30
2019-02-27T00:14:31.262Z,59.25
2019-02-27T00:15:08.271Z,59.51
2019-02-27T00:15:47.066Z,59.51
2019-02-27T00:16:26.711Z,60.28
2019-02-27T00:17:03.199Z,60.28
2019-02-27T00:17:40.040Z,60.44
2019-02-27T00:18:37.531Z,60.63
2019-02-27T00:19:15.170Z,60.76
2019-02-27T00:20:04.083Z,60.97
2019-02-27T00:20:38.195Z,60.63
2019-02-27T00:21:17.718Z,60.63
2019-02-27T00:21:54.382Z,60.98
2019-02-27T00:22:34.661Z,61.41
2019-02-27T00:23:10.949Z,61.41
2019-02-27T00:23:50.723Z,61.23
2019-02-27T00:24:29.882Z,61.23
2019-02-27T00:25:05.602Z,61.47
2019-02-27T00:25:42.233Z,61.51
2019-02-27T00:26:18.520Z,61.65
2019-02-27T00:26:56.401Z,61.65
2019-02-27T00:27:32.953Z,61.65
2019-02-27T00:28:12.232Z,61.67
2019-02-27T00:28:55.917Z,61.70
2019-02-27T00:29:52.966Z,61.50
2019-02-27T00:30:33.324Z,61.50
2019-02-27T00:31:16.058Z,61.74
2019-02-27T00:31:52.534Z,61.72
2019-02-27T00:32:28.926Z,61.80
2019-02-27T00:33:05.404Z,61.61
2019-02-27T00:33:51.480Z,61.61
2019-02-27T00:34:28.057Z,61.65
2019-02-27T00:35:07.290Z,61.58
2019-02-27T00:35:43.189Z,61.46
2019-02-27T00:36:19.719Z,61.41
2019-02-27T00:36:57.336Z,61.29
2019-02-27T00:37:34.549Z,61.47
2019-02-27T00:38:11.988Z,61.02
2019-02-27T00:38:48.403Z,61.02
2019-02-27T00:39:26.161Z,61.32
2019-02-27T00:40:05.613Z,60.67
2019-02-27T00:40:46.557Z,60.67
2019-02-27T00:41:23.760Z,60.88
2019-02-27T00:42:00.279Z,60.73
2019-02-27T00:42:39.498Z,60.56
2019-02-27T00:43:16.020Z,60.39
2019-02-27T00:44:10.781Z,60.36
2019-02-27T00:44:47.391Z,60.31
2019-02-27T00:45:24.210Z,60.32
2019-02-27T00:46:00.550Z,60.10
2019-02-27T00:46:37.514Z,59.78
2019-02-27T00:47:14.001Z,60.00
2019-02-27T00:47:52.786Z,59.98
2019-02-27T00:48:28.890Z,60.29
2019-02-27T00:49:10.963Z,60.29
2019-02-27T00:49:48.963Z,59.96
2019-02-27T00:50:26.622Z,59.84
2019-02-27T00:51:05.716Z,59.65
2019-02-27T00:51:44.971Z,59.45
2019-02-27T00:52:23.630Z,59.40
2019-02-27T00:53:00.422Z,59.42
2019-02-27T00:53:37.350Z,59.14
2019-02-27T00:54:14.516Z,58.78
2019-02-27T00:54:50.951Z,58.86
2019-02-27T00:55:27.271Z,59.01
2019-02-27T00:56:04.373Z,59.08
2019-02-27T00:56:45.812Z,59.13
2019-02-27T00:57:23.004Z,59.39
2019-02-27T00:57:59.767Z,59.39
2019-02-27T00:58:36.269Z,59.00
2019-02-27T00:59:17.623Z,58.87
2019-02-27T00:59:54.781Z,59.45
2019-02-27T01:00:39.243Z,59.45
2019-02-27T01:01:17.617Z,58.95
2019-02-27T01:01:55.014Z,58.84
2019-02-27T01:02:32.237Z,58.74
2019-02-27T01:03:09.239Z,58.64
2019-02-27T01:03:45.640Z,58.51
2019-02-27T01:04:26.763Z,58.33
2019-02-27T01:05:09.149Z,58.19
2019-02-27T01:05:45.789Z,57.98
2019-02-27T01:06:25.311Z,57.93
2019-02-27T01:07:01.729Z,57.79
2019-02-27T01:07:38.822Z,57.65
2019-02-27T01:08:17.587Z,57.44
2019-02-27T01:08:54.196Z,57.12
2019-02-27T01:09:30.517Z,56.90
2019-02-27T01:10:12.060Z,56.83
2019-02-27T01:10:48.883Z,56.83
2019-02-27T01:11:25.292Z,56.75
2019-02-27T01:12:01.715Z,56.46
2019-02-27T01:12:38.225Z,56.33
2019-02-27T01:13:21.902Z,56.29
2019-02-27T01:13:58.343Z,56.28
2019-02-27T01:14:36.881Z,56.17
2019-02-27T01:15:15.775Z,56.15
2019-02-27T01:15:52.571Z,56.14
2019-02-27T01:16:29.371Z,56.04
2019-02-27T01:17:05.777Z,55.91
2019-02-27T01:17:42.117Z,55.71
2019-02-27T01:18:21.336Z,55.52
2019-02-27T01:18:58.576Z,55.49
2019-02-27T01:19:38.479Z,55.47
2019-02-27T01:20:14.698Z,55.42
2019-02-27T01:20:52.287Z,55.29
2019-02-27T01:21:28.695Z,54.97
2019-02-27T01:22:05.948Z,54.73
2019-02-27T01:22:49.576Z,54.58
2019-02-27T01:23:26.000Z,54.34
2019-02-27T01:24:02.468Z,54.20
2019-02-27T01:24:38.807Z,54.17
2019-02-27T01:25:16.598Z,54.23
2019-02-27T01:25:56.105Z,54.36
2019-02-27T01:26:31.594Z,54.21
2019-02-27T01:27:08.245Z,54.19
2019-02-27T01:27:44.514Z,54.07
2019-02-27T01:28:20.971Z,53.87
2019-02-27T01:28:57.475Z,53.92
2019-02-27T01:29:34.055Z,53.95
2019-02-27T01:30:15.136Z,53.85
2019-02-27T01:30:51.560Z,53.75
2019-02-27T01:31:30.425Z,53.81
2019-02-27T01:32:07.018Z,53.84
2019-02-27T01:32:45.182Z,54.01
2019-02-27T01:33:21.833Z,53.91
2019-02-27T01:33:58.255Z,53.85
2019-02-27T01:34:34.619Z,53.75
2019-02-27T01:35:17.632Z,53.77
2019-02-27T01:35:52.412Z,53.56
2019-02-27T01:36:29.788Z,53.46
2019-02-27T01:37:07.692Z,53.38
2019-02-27T01:37:44.189Z,53.18
2019-02-27T01:38:21.191Z,53.20
2019-02-27T01:39:00.026Z,53.10
2019-02-27T01:39:37.624Z,53.14
2019-02-27T01:40:18.062Z,53.27
2019-02-27T01:40:54.976Z,53.22
2019-02-27T01:41:32.978Z,53.06
2019-02-27T01:42:10.824Z,52.97
2019-02-27T01:42:47.391Z,53.02
2019-02-27T01:43:24.022Z,52.94
2019-02-27T01:44:01.504Z,52.82
2019-02-27T01:44:46.533Z,52.90
2019-02-27T01:45:23.067Z,52.90
2019-02-27T01:45:59.475Z,53.07
2019-02-27T01:46:35.901Z,53.28
2019-02-27T01:47:12.328Z,53.32
2019-02-27T01:47:48.838Z,53.21
2019-02-27T01:48:25.639Z,53.12
2019-02-27T01:49:02.214Z,53.20
2019-02-27T01:49:38.562Z,53.19
2019-02-27T01:50:37.969Z,53.15
2019-02-27T01:51:14.491Z,53.18
2019-02-27T01:51:53.062Z,52.94
2019-02-27T01:52:40.432Z,52.82
2019-02-27T01:53:16.801Z,52.75
2019-02-27T01:53:54.580Z,52.65
2019-02-27T01:54:32.631Z,52.56
2019-02-27T01:55:09.724Z,52.53
2019-02-27T01:55:46.689Z,52.35
2019-02-27T01:56:23.555Z,52.29
2019-02-27T01:57:02.936Z,52.27
2019-02-27T01:57:54.239Z,52.23
2019-02-27T01:58:33.743Z,52.15
2019-02-27T01:59:10.614Z,51.96
2019-02-27T01:59:50.066Z,51.80
2019-02-27T02:00:26.661Z,51.70
2019-02-27T02:01:03.072Z,51.27
2019-02-27T02:01:42.228Z,51.01
2019-02-27T02:02:18.618Z,51.04
2019-02-27T02:02:55.149Z,51.04
2019-02-27T02:03:32.066Z,51.00
2019-02-27T02:04:09.335Z,50.93
2019-02-27T02:04:53.122Z,50.94
2019-02-27T02:05:28.765Z,50.60
2019-02-27T02:06:05.958Z,50.46
2019-02-27T02:06:42.892Z,50.25
2019-02-27T02:07:22.647Z,50.00
2019-02-27T02:07:59.666Z,50.03
2019-02-27T02:08:36.763Z,50.01
2019-02-27T02:09:52.145Z,50.00
2019-02-27T02:10:29.398Z,49.80
2019-02-27T02:11:05.910Z,49.75
2019-02-27T02:11:47.000Z,49.78
2019-02-27T02:12:33.007Z,49.66
2019-02-27T02:13:32.581Z,49.55
2019-02-27T02:15:01.839Z,49.60
2019-02-27T02:16:11.798Z,49.45
2019-02-27T02:17:07.451Z,49.52
2019-02-27T02:18:17.374Z,49.18
2019-02-27T02:19:34.551Z,49.38
2019-02-27T02:20:46.462Z,49.47
2019-02-27T02:21:53.989Z,49.57
2019-02-27T02:23:08.560Z,49.64
2019-02-27T02:24:21.693Z,49.12
2019-02-27T02:25:42.617Z,49.16
2019-02-27T02:27:02.315Z,48.49
2019-02-27T02:28:22.822Z,48.78
2019-02-27T02:29:54.341Z,48.72
2019-02-27T02:31:25.792Z,49.09
2019-02-27T02:32:39.029Z,49.36
2019-02-27T02:33:45.293Z,49.34
2019-02-27T02:35:04.227Z,49.24
2019-02-27T02:36:26.859Z,48.99
2019-02-27T02:37:33.763Z,49.08
2019-02-27T02:38:32.832Z,48.86
2019-02-27T02:39:29.379Z,48.90
2019-02-27T02:40:56.390Z,48.51
2019-02-27T02:42:17.006Z,48.48
2019-02-27T02:43:30.536Z,48.41
2019-02-27T02:44:30.617Z,48.39
2019-02-27T02:45:16.925Z,48.31
2019-02-27T02:46:17.417Z,48.24
2019-02-27T02:47:38.913Z,48.11
2019-02-27T02:49:06.464Z,48.03
2019-02-27T02:50:29.521Z,48.23
2019-02-27T02:51:52.276Z,48.10
2019-02-27T02:52:59.708Z,47.81
2019-02-27T02:54:02.267Z,47.78
2019-02-27T02:55:47.733Z,47.50
2019-02-27T02:57:05.184Z,47.45
2019-02-27T02:58:03.773Z,47.30
2019-02-27T02:59:05.489Z,47.11
2019-02-27T03:00:23.809Z,47.30
2019-02-27T03:01:36.003Z,47.07
2019-02-27T03:02:41.948Z,47.27
2019-02-27T03:03:46.270Z,46.79
2019-02-27T03:05:36.430Z,46.93
2019-02-27T03:06:56.869Z,46.61
2019-02-27T03:08:12.601Z,46.59
2019-02-27T03:09:31.807Z,46.46
2019-02-27T03:10:27.697Z,46.52
2019-02-27T03:11:40.184Z,46.32
2019-02-27T03:12:55.356Z,46.31
2019-02-27T03:13:58.153Z,46.79
2019-02-27T03:15:40.276Z,46.34
2019-02-27T03:17:17.817Z,45.95
2019-02-27T03:18:36.562Z,45.84
2019-02-27T03:20:01.823Z,45.71
2019-02-27T03:21:44.898Z,46.04
2019-02-27T03:23:15.575Z,45.33
2019-02-27T03:25:03.608Z,45.36
2019-02-27T03:26:24.726Z,45.51
2019-02-27T03:28:07.066Z,45.10
2019-02-27T03:31:57.944Z,44.55
2019-02-27T03:32:53.240Z,44.89
2019-02-27T03:34:08.124Z,44.82
2019-02-27T03:35:11.187Z,44.90
2019-02-27T03:36:39.751Z,45.46
2019-02-27T03:37:58.223Z,45.55
2019-02-27T03:39:08.756Z,45.02
2019-02-27T03:40:16.185Z,45.12
2019-02-27T03:41:22.536Z,44.83
2019-02-27T03:42:20.032Z,44.70
2019-02-27T03:43:59.344Z,44.19
2019-02-27T03:45:34.749Z,44.29
2019-02-27T03:46:41.835Z,44.58
2019-02-27T03:47:53.010Z,44.44
2019-02-27T03:49:07.928Z,44.54
2019-02-27T03:50:27.739Z,44.26
2019-02-27T03:51:35.470Z,43.89
2019-02-27T03:53:13.203Z,43.62
2019-02-27T03:54:44.941Z,43.64
2019-02-27T03:56:09.942Z,43.39
2019-02-27T03:57:54.958Z,43.39
2019-02-27T03:59:11.064Z,43.45
2019-02-27T04:00:22.734Z,43.29
2019-02-27T04:02:05.730Z,43.40
2019-02-27T04:03:30.450Z,43.73
2019-02-27T04:04:44.951Z,42.97
2019-02-27T04:06:03.136Z,42.71
2019-02-27T04:07:15.291Z,42.99
2019-02-27T04:08:15.273Z,42.74
2019-02-27T04:09:10.633Z,42.84
2019-02-27T04:09:55.376Z,42.97
2019-02-27T04:10:42.383Z,43.00
2019-02-27T04:11:21.540Z,42.94
2019-02-27T04:11:57.832Z,42.91
2019-02-27T04:12:35.220Z,42.94
2019-02-27T04:13:15.662Z,43.00
2019-02-27T04:13:53.551Z,43.10
2019-02-27T04:14:41.777Z,42.95
2019-02-27T04:15:18.143Z,42.94
2019-02-27T04:15:55.516Z,43.24
2019-02-27T04:16:33.764Z,43.53
2019-02-27T04:17:13.606Z,43.34
2019-02-27T04:17:51.820Z,43.07
2019-02-27T04:18:27.383Z,42.79
2019-02-27T04:19:04.714Z,42.70
2019-02-27T04:19:45.251Z,42.69
2019-02-27T04:20:21.445Z,42.50
2019-02-27T04:21:00.914Z,42.40
2019-02-27T04:21:40.708Z,42.25
2019-02-27T04:22:17.028Z,42.06
2019-02-27T04:22:56.346Z,42.24
2019-02-27T04:23:36.759Z,42.40
2019-02-27T04:24:13.123Z,42.51
2019-02-27T04:24:56.256Z,42.44
2019-02-27T04:25:31.526Z,42.36
2019-02-27T04:26:07.226Z,42.34
2019-02-27T04:26:44.794Z,42.25
2019-02-27T04:27:30.361Z,42.20
2019-02-27T04:28:06.606Z,42.08
2019-02-27T04:29:18.703Z,41.97
2019-02-27T04:30:33.692Z,42.01
2019-02-27T04:31:11.766Z,41.71
2019-02-27T04:31:49.591Z,41.96
2019-02-27T04:32:27.671Z,42.12
2019-02-27T04:33:26.077Z,42.29
2019-02-27T04:34:02.797Z,42.40
2019-02-27T04:34:39.983Z,42.06
2019-02-27T04:35:29.879Z,41.68
2019-02-27T04:36:06.412Z,41.48
2019-02-27T04:36:46.906Z,41.60
2019-02-27T04:37:23.813Z,41.56
2019-02-27T04:38:16.291Z,41.40
2019-02-27T04:39:02.474Z,41.23
2019-02-27T04:39:41.407Z,40.91
2019-02-27T04:40:20.632Z,40.68
2019-02-27T04:40:57.523Z,40.31
2019-02-27T04:41:35.223Z,40.31
2019-02-27T04:42:16.119Z,40.39
2019-02-27T04:43:12.333Z,40.63
2019-02-27T04:44:10.709Z,40.70
2019-02-27T04:44:47.252Z,40.70
2019-02-27T04:45:46.886Z,40.49
2019-02-27T04:46:23.922Z,40.40
2019-02-27T04:47:00.867Z,40.37
2019-02-27T04:47:38.162Z,40.49
2019-02-27T04:48:15.707Z,40.43
2019-02-27T04:49:13.435Z,40.42
2019-02-27T04:49:58.506Z,40.75
2019-02-27T04:50:44.739Z,40.79
2019-02-27T04:51:21.142Z,40.87
2019-02-27T04:51:58.017Z,40.96
2019-02-27T04:52:58.662Z,40.98
2019-02-27T04:53:56.156Z,41.34
2019-02-27T04:54:41.281Z,41.01
2019-02-27T04:55:17.255Z,40.80
2019-02-27T04:55:58.177Z,40.49
2019-02-27T04:56:34.577Z,40.29
2019-02-27T04:57:10.831Z,40.37
2019-02-27T04:58:09.080Z,40.43
2019-02-27T04:58:45.592Z,40.52
2019-02-27T04:59:23.173Z,40.43
2019-02-27T05:00:01.809Z,40.49
2019-02-27T05:00:51.416Z,40.32
2019-02-27T05:01:30.383Z,40.26
2019-02-27T05:02:12.102Z,40.14
2019-02-27T05:02:50.462Z,40.02
2019-02-27T05:03:56.253Z,40.08
2019-02-27T05:04:35.297Z,40.27
2019-02-27T05:05:21.782Z,39.93
2019-02-27T05:05:58.139Z,39.91
2019-02-27T05:06:40.198Z,39.83
2019-02-27T05:07:24.571Z,39.82
2019-02-27T05:08:07.784Z,39.71
2019-02-27T05:08:59.970Z,39.59
2019-02-27T05:09:38.426Z,39.47
2019-02-27T05:10:16.352Z,39.03
2019-02-27T05:10:54.867Z,38.70
2019-02-27T05:11:38.859Z,38.55
2019-02-27T05:13:11.162Z,38.48
2019-02-27T05:14:07.633Z,38.29
2019-02-27T05:14:46.486Z,38.00
2019-02-27T05:15:29.313Z,38.07
2019-02-27T05:16:07.500Z,37.29
2019-02-27T05:16:47.918Z,36.71
2019-02-27T05:17:29.002Z,36.90
2019-02-27T05:18:08.504Z,37.08
2019-02-27T05:18:46.459Z,37.33
2019-02-27T05:19:22.782Z,37.27
2019-02-27T05:19:59.155Z,37.22
2019-02-27T05:20:45.885Z,37.11
2019-02-27T05:21:22.688Z,36.90
2019-02-27T05:22:08.615Z,36.66
2019-02-27T05:22:45.940Z,36.74
2019-02-27T05:23:22.388Z,36.65
2019-02-27T05:24:05.143Z,37.10
2019-02-27T05:24:42.231Z,37.38
2019-02-27T05:25:19.783Z,37.45
2019-02-27T05:25:56.370Z,37.42
2019-02-27T05:26:34.419Z,37.42
2019-02-27T05:27:11.233Z,37.41
2019-02-27T05:27:50.108Z,37.45
2019-02-27T05:28:27.601Z,37.36
2019-02-27T05:29:04.888Z,37.41
2019-02-27T05:29:42.291Z,37.12
2019-02-27T05:30:18.979Z,37.24
2019-02-27T05:30:56.784Z,37.27
2019-02-27T05:31:34.445Z,37.28
2019-02-27T05:32:11.039Z,37.35
2019-02-27T05:32:47.787Z,37.29
2019-02-27T05:33:25.847Z,37.21
2019-02-27T05:34:02.211Z,37.12
2019-02-27T05:34:59.325Z,37.11
2019-02-27T05:35:36.546Z,37.24
2019-02-27T05:36:12.843Z,37.14
2019-02-27T05:36:49.161Z,37.07
2019-02-27T05:37:29.066Z,36.87
2019-02-27T05:38:11.153Z,36.79
2019-02-27T05:38:47.627Z,36.75
2019-02-27T05:39:25.122Z,36.66
2019-02-27T05:40:39.832Z,36.37
2019-02-27T05:41:16.390Z,36.12
2019-02-27T05:41:53.499Z,36.07
2019-02-27T05:42:29.797Z,35.98
2019-02-27T05:43:13.211Z,35.99
2019-02-27T05:43:48.763Z,36.17
2019-02-27T05:44:25.463Z,36.65
2019-02-27T05:45:01.816Z,37.39
2019-02-27T05:45:39.031Z,37.52
2019-02-27T05:46:15.361Z,37.68
2019-02-27T05:46:53.582Z,38.03
2019-02-27T05:47:31.919Z,38.12
2019-02-27T05:48:11.569Z,38.29
2019-02-27T05:48:50.957Z,38.62
2019-02-27T05:49:27.437Z,38.79
2019-02-27T05:50:07.319Z,38.86
2019-02-27T05:50:45.051Z,38.59
2019-02-27T05:51:21.311Z,38.46
2019-02-27T05:52:00.556Z,38.49
2019-02-27T05:52:37.169Z,38.49
2019-02-27T05:53:13.387Z,37.81
2019-02-27T05:53:52.654Z,37.28
2019-02-27T05:54:32.979Z,37.10
2019-02-27T05:55:14.079Z,36.50
2019-02-27T05:55:53.311Z,36.22
2019-02-27T05:56:29.775Z,36.24
2019-02-27T05:57:08.459Z,36.20
2019-02-27T05:57:47.163Z,36.47
2019-02-27T05:58:23.714Z,36.55
2019-02-27T05:59:01.553Z,36.41
2019-02-27T05:59:38.397Z,36.40
2019-02-27T06:00:17.697Z,36.50
2019-02-27T06:00:54.163Z,36.63
2019-02-27T06:01:32.379Z,36.89
2019-02-27T06:02:11.022Z,36.75
2019-02-27T06:03:02.718Z,36.76
2019-02-27T06:03:45.541Z,36.79
2019-02-27T06:04:25.705Z,36.55
2019-02-27T06:05:06.694Z,35.41
2019-02-27T06:05:49.656Z,34.61
2019-02-27T06:06:24.669Z,34.66
2019-02-27T06:07:01.871Z,34.83
2019-02-27T06:07:39.568Z,34.75
2019-02-27T06:08:19.452Z,34.70
2019-02-27T06:08:58.433Z,34.72
2019-02-27T06:09:41.426Z,34.38
2019-02-27T06:10:37.535Z,33.87
2019-02-27T06:11:22.777Z,34.01
2019-02-27T06:11:59.294Z,34.20
2019-02-27T06:12:38.110Z,34.18
2019-02-27T06:13:16.325Z,34.31
2019-02-27T06:14:03.374Z,34.25
2019-02-27T06:14:39.977Z,33.99
2019-02-27T06:15:21.002Z,34.27
2019-02-27T06:16:02.853Z,34.68
2019-02-27T06:16:42.329Z,34.93
2019-02-27T06:17:18.932Z,35.21
2019-02-27T06:18:04.111Z,35.41
2019-02-27T06:18:44.074Z,35.48
2019-02-27T06:19:21.724Z,35.62
2019-02-27T06:20:09.735Z,35.57
2019-02-27T06:20:48.061Z,35.83
2019-02-27T06:21:27.788Z,35.85
2019-02-27T06:22:35.641Z,35.84
2019-02-27T06:23:22.983Z,35.92
2019-02-27T06:24:00.739Z,35.78
2019-02-27T06:24:37.356Z,35.69
2019-02-27T06:25:23.590Z,35.60
2019-02-27T06:26:05.113Z,35.61
2019-02-27T06:26:41.312Z,35.70
2019-02-27T06:27:17.784Z,35.67
2019-02-27T06:27:58.163Z,35.66
2019-02-27T06:28:37.093Z,35.25
2019-02-27T06:29:13.495Z,34.73
2019-02-27T06:29:49.814Z,34.58
2019-02-27T06:30:27.947Z,34.51
2019-02-27T06:31:05.517Z,34.56
2019-02-27T06:31:45.228Z,34.71
2019-02-27T06:32:22.310Z,35.22
2019-02-27T06:33:20.468Z,36.31
2019-02-27T06:34:22.298Z,36.97
2019-02-27T06:35:00.047Z,37.66
2019-02-27T06:35:37.138Z,38.14
2019-02-27T06:36:13.587Z,38.27
2019-02-27T06:36:50.257Z,37.69
2019-02-27T06:37:27.661Z,37.49
2019-02-27T06:38:04.053Z,37.45
2019-02-27T06:38:51.509Z,37.65
2019-02-27T06:39:28.631Z,37.83
2019-02-27T06:40:07.509Z,38.21
2019-02-27T06:40:47.558Z,38.75
2019-02-27T06:41:26.577Z,39.07
2019-02-27T06:42:04.638Z,39.25
2019-02-27T06:42:45.857Z,39.35
2019-02-27T06:43:27.150Z,39.75
2019-02-27T06:44:02.211Z,40.28
2019-02-27T06:44:39.283Z,40.47
2019-02-27T06:45:17.143Z,40.65
2019-02-27T06:45:56.895Z,40.36
2019-02-27T06:46:41.932Z,40.28
2019-02-27T06:47:21.261Z,40.35
2019-02-27T06:48:00.411Z,40.67
2019-02-27T06:48:38.120Z,40.99
2019-02-27T06:49:18.252Z,41.19
2019-02-27T06:49:53.977Z,41.41
2019-02-27T06:50:35.449Z,41.77
2019-02-27T06:51:11.831Z,41.68
2019-02-27T06:51:48.200Z,41.88
2019-02-27T06:52:25.519Z,42.29
2019-02-27T06:53:03.410Z,42.28
2019-02-27T06:53:39.592Z,42.37
2019-02-27T06:54:18.378Z,42.75
2019-02-27T06:54:56.270Z,42.86
2019-02-27T06:55:39.467Z,42.93
2019-02-27T06:56:17.229Z,43.00
2019-02-27T06:56:56.917Z,43.45
2019-02-27T06:57:46.849Z,43.69
2019-02-27T06:58:33.984Z,44.19
2019-02-27T06:59:13.392Z,44.83
2019-02-27T06:59:49.726Z,45.07
2019-02-27T07:00:26.037Z,45.03
2019-02-27T07:01:09.722Z,45.29
2019-02-27T07:01:48.326Z,45.51
2019-02-27T07:02:27.907Z,45.61
2019-02-27T07:03:04.524Z,45.60
2019-02-27T07:04:08.171Z,45.68
2019-02-27T07:04:56.337Z,45.89
2019-02-27T07:05:33.434Z,45.79
2019-02-27T07:06:13.463Z,45.63
2019-02-27T07:06:58.334Z,45.64
2019-02-27T07:07:41.015Z,45.62
2019-02-27T07:08:57.604Z,45.54
2019-02-27T07:09:43.192Z,45.58
2019-02-27T07:10:26.580Z,45.86
2019-02-27T07:11:10.539Z,45.98
2019-02-27T07:12:00.130Z,46.23
2019-02-27T07:12:39.583Z,46.20
2019-02-27T07:13:17.047Z,46.04
2019-02-27T07:13:53.322Z,45.92
2019-02-27T07:14:32.830Z,45.65
2019-02-27T07:15:15.575Z,45.42
2019-02-27T07:15:55.610Z,45.35
2019-02-27T07:16:38.187Z,45.36
2019-02-27T07:17:15.855Z,45.43
2019-02-27T07:17:54.455Z,45.49
2019-02-27T07:18:32.787Z,45.50
2019-02-27T07:19:13.169Z,45.79
2019-02-27T07:20:30.813Z,45.90
2019-02-27T07:21:09.512Z,46.07
2019-02-27T07:21:55.247Z,45.77
2019-02-27T07:22:31.756Z,45.51
2019-02-27T07:23:09.493Z,45.31
2019-02-27T07:23:51.522Z,45.21
2019-02-27T07:25:20.116Z,45.19
2019-02-27T07:26:27.167Z,45.11
2019-02-27T07:27:18.622Z,45.30
2019-02-27T07:28:13.543Z,45.87
2019-02-27T07:28:50.042Z,46.23
2019-02-27T07:30:16.335Z,46.31
2019-02-27T07:31:37.326Z,46.59
2019-02-27T07:32:35.555Z,47.29
2019-02-27T07:33:59.333Z,47.26
2019-02-27T07:35:46.136Z,47.70
2019-02-27T07:36:22.498Z,48.01
2019-02-27T07:37:25.603Z,48.21
2019-02-27T07:38:25.570Z,48.29
2019-02-27T07:39:05.369Z,47.88
2019-02-27T07:39:41.701Z,47.61
2019-02-27T07:40:43.004Z,47.62
2019-02-27T07:41:22.812Z,47.78
2019-02-27T07:42:00.639Z,48.19
2019-02-27T07:42:45.211Z,48.11
2019-02-27T07:43:23.234Z,47.73
2019-02-27T07:44:03.129Z,47.38
2019-02-27T07:44:55.616Z,47.24
2019-02-27T07:45:32.358Z,46.87
2019-02-27T07:46:11.946Z,46.53
2019-02-27T07:46:48.230Z,46.44
2019-02-27T07:47:24.476Z,46.38
2019-02-27T07:48:01.801Z,46.34
2019-02-27T07:48:41.360Z,46.57
2019-02-27T07:49:19.455Z,46.33
2019-02-27T07:49:57.639Z,46.12
2019-02-27T07:50:58.862Z,45.83
2019-02-27T07:51:37.484Z,45.55
2019-02-27T07:52:14.982Z,45.27
2019-02-27T07:52:54.331Z,45.21
2019-02-27T07:53:36.018Z,45.21
2019-02-27T07:54:13.460Z,45.20
2019-02-27T07:54:50.450Z,45.19
2019-02-27T07:55:31.053Z,45.14
2019-02-27T07:56:12.228Z,44.71
2019-02-27T07:56:58.154Z,44.22
2019-02-27T07:57:35.309Z,43.82
2019-02-27T07:58:15.009Z,43.61
2019-02-27T07:58:51.940Z,43.59
2019-02-27T07:59:49.495Z,43.50
2019-02-27T08:00:28.106Z,43.39
2019-02-27T08:01:04.804Z,43.36
2019-02-27T08:01:44.077Z,43.44
2019-02-27T08:02:22.589Z,43.37
2019-02-27T08:03:01.273Z,43.35
2019-02-27T08:03:37.601Z,43.51
2019-02-27T08:04:19.045Z,43.51
2019-02-27T08:05:13.414Z,43.58
2019-02-27T08:05:51.426Z,43.30
2019-02-27T08:06:35.039Z,43.28
2019-02-27T08:07:13.585Z,43.13
2019-02-27T08:07:50.725Z,43.11
2019-02-27T08:08:30.768Z,43.35
2019-02-27T08:09:10.251Z,43.55
2019-02-27T08:09:46.452Z,43.52
2019-02-27T08:10:24.917Z,43.53
2019-02-27T08:11:02.238Z,43.61
2019-02-27T08:11:40.501Z,43.78
2019-02-27T08:12:20.782Z,43.81
2019-02-27T08:12:57.296Z,43.86
2019-02-27T08:13:34.714Z,44.00
2019-02-27T08:14:15.837Z,44.19
2019-02-27T08:14:52.153Z,44.07
2019-02-27T08:15:29.610Z,43.68
2019-02-27T08:16:06.001Z,43.61
2019-02-27T08:16:45.987Z,43.63
2019-02-27T08:17:39.399Z,43.65
2019-02-27T08:18:15.809Z,43.45
2019-02-27T08:18:54.398Z,43.08
2019-02-27T08:19:30.781Z,42.89
2019-02-27T08:20:10.069Z,42.89
2019-02-27T08:20:48.059Z,42.97
2019-02-27T08:21:26.105Z,43.12
2019-02-27T08:22:05.877Z,43.26
2019-02-27T08:22:45.356Z,43.70
2019-02-27T08:23:28.113Z,43.76
2019-02-27T08:24:08.782Z,43.53
2019-02-27T08:24:47.701Z,43.29
2019-02-27T08:25:25.522Z,43.05
2019-02-27T08:26:05.179Z,42.94
2019-02-27T08:26:44.157Z,42.80
2019-02-27T08:27:23.094Z,42.89
2019-02-27T08:27:59.684Z,43.11
2019-02-27T08:28:36.077Z,43.25
2019-02-27T08:29:15.786Z,43.35
2019-02-27T08:29:57.082Z,43.45
2019-02-27T08:30:33.314Z,43.30
2019-02-27T08:31:09.656Z,43.24
2019-02-27T08:31:45.853Z,43.04
2019-02-27T08:32:25.423Z,43.07
2019-02-27T08:33:03.348Z,42.76
2019-02-27T08:33:41.415Z,42.85
2019-02-27T08:34:18.545Z,42.72
2019-02-27T08:34:54.857Z,42.69
2019-02-27T08:35:31.506Z,42.68
2019-02-27T08:36:07.997Z,42.87
2019-02-27T08:36:46.504Z,43.23
2019-02-27T08:37:26.871Z,43.29
2019-02-27T08:38:04.183Z,43.46
2019-02-27T08:38:42.384Z,43.53
2019-02-27T08:39:18.836Z,43.48
2019-02-27T08:39:55.779Z,43.58
2019-02-27T08:40:35.648Z,43.67
2019-02-27T08:41:12.163Z,43.68
2019-02-27T08:41:48.524Z,43.63
2019-02-27T08:42:30.447Z,43.35
2019-02-27T08:43:10.243Z,43.32
2019-02-27T08:43:47.421Z,43.41
2019-02-27T08:44:30.172Z,43.71
2019-02-27T08:45:18.928Z,43.82
2019-02-27T08:45:47.665Z,43.67
2019-02-27T08:46:25.686Z,43.68
2019-02-27T08:47:04.325Z,43.76
2019-02-27T08:47:43.470Z,43.75
2019-02-27T08:48:21.152Z,43.44
2019-02-27T08:48:57.648Z,43.25
2019-02-27T08:49:37.434Z,42.98
2019-02-27T08:50:19.490Z,42.98
2019-02-27T08:50:56.193Z,42.93
2019-02-27T08:51:39.764Z,42.90
2019-02-27T08:52:16.284Z,43.05
2019-02-27T08:52:53.211Z,43.57
2019-02-27T08:53:30.825Z,43.68
2019-02-27T08:54:07.149Z,43.66
2019-02-27T08:54:44.758Z,43.68
2019-02-27T08:55:24.901Z,43.83
2019-02-27T08:56:01.625Z,43.85
2019-02-27T08:56:44.039Z,43.25
2019-02-27T08:57:21.342Z,43.22
2019-02-27T08:57:57.875Z,43.36
2019-02-27T08:58:34.170Z,43.73
2019-02-27T08:59:11.283Z,43.93
2019-02-27T08:59:50.548Z,43.98
2019-02-27T09:00:41.101Z,43.98
2019-02-27T09:01:21.417Z,43.90
2019-02-27T09:02:05.965Z,43.94
2019-02-27T09:02:43.779Z,44.06
2019-02-27T09:03:21.280Z,43.64
2019-02-27T09:03:57.625Z,43.44
2019-02-27T09:04:34.586Z,43.50
2019-02-27T09:05:11.084Z,43.56
2019-02-27T09:06:08.249Z,43.70
2019-02-27T09:06:47.385Z,43.61
2019-02-27T09:07:23.604Z,43.42
2019-02-27T09:07:59.947Z,43.59
2019-02-27T09:08:36.175Z,43.98
2019-02-27T09:09:15.051Z,44.04
2019-02-27T09:09:51.747Z,43.79
2019-02-27T09:10:38.021Z,43.93
2019-02-27T09:11:15.154Z,44.01
2019-02-27T09:11:56.967Z,44.21
2019-02-27T09:12:35.521Z,44.04
2019-02-27T09:13:12.142Z,43.31
2019-02-27T09:13:49.833Z,43.60
2019-02-27T09:14:26.966Z,43.57
2019-02-27T09:15:03.391Z,43.53
2019-02-27T09:15:44.237Z,43.90
2019-02-27T09:16:23.033Z,44.03
2019-02-27T09:16:59.805Z,43.66
2019-02-27T09:17:36.228Z,43.58
2019-02-27T09:18:15.091Z,43.61
2019-02-27T09:18:53.754Z,43.73
2019-02-27T09:19:34.630Z,43.91
2019-02-27T09:20:12.778Z,44.16
2019-02-27T09:20:53.278Z,44.18
2019-02-27T09:21:28.697Z,44.10
2019-02-27T09:22:06.235Z,44.27
2019-02-27T09:22:43.633Z,44.35
2019-02-27T09:23:20.018Z,44.37
2019-02-27T09:24:00.447Z,44.41
2019-02-27T09:24:38.578Z,44.54
2019-02-27T09:25:15.215Z,44.27
2019-02-27T09:25:57.310Z,44.22
2019-02-27T09:26:29.780Z,44.31
2019-02-27T09:27:11.484Z,44.37
2019-02-27T09:27:47.927Z,44.59
2019-02-27T09:28:47.733Z,44.73
2019-02-27T09:29:28.310Z,44.71
2019-02-27T09:30:07.709Z,44.42
2019-02-27T09:30:45.088Z,44.36
2019-02-27T09:31:21.461Z,44.44
2019-02-27T09:31:58.508Z,44.38
2019-02-27T09:32:58.193Z,44.60
2019-02-27T09:33:38.713Z,44.62
2019-02-27T09:34:12.692Z,44.48
2019-02-27T09:34:49.287Z,44.41
2019-02-27T09:35:47.027Z,44.16
2019-02-27T09:36:23.283Z,44.08
2019-02-27T09:36:59.528Z,44.13
2019-02-27T09:37:39.517Z,44.21
2019-02-27T09:38:15.926Z,44.27
2019-02-27T09:38:52.159Z,44.37